Aviation Digital Data Service (ADDS)

Output produced by METARs form (1304 UTC 26 April 2015)
found at http://aviationweather.gov/adds/metars/
 
KCAK 261120Z 2612/2712 02010KT P6SM SCT250 
     FM261500 01011KT P6SM SCT045 
     FM270000 35009KT P6SM SCT050 BKN120 
     FM270200 33004KT P6SM BKN050 
     FM271100 30006KT P6SM OVC025